Gatlinburg, TN

11:14 AM EST on February 12, 2016 (GMT -0500)
South Pigeon Forge | | Change Station
CLOSE
Current Station
Personal Weather Station
Location: Pigeon Forge, TN
Elevation: 1224 ft
Nearby Weather Stations
Active Advisory: Winter Weather Advisory

Elev 1224 ft 35.76 °N, 83.57 °W | Updated 12 minutes ago

Snow
Snow
34.9 °F
Feels Like 35 °F
N
0.0
Wind Variable Wind from SE

Today
High -- | Low -- °F
--% Chance of Precip.
Yesterday
High -- | Low -- °F
Precip. -- in
Pressure 30.16 in
Visibility 6.0 miles
Clouds Overcast 3600 ft
Windchill 35 °F
Dew Point 32 °F
Humidity 88%
Rainfall 0.00 in
Snow Depth Not available.
7:24 AM 6:12 PM
Waxing Crescent, 21% visible
METAR KTYS 121553Z 30006KT 6SM BR OVC036 M01/M02 A3014 RMK AO2 SNE06B12E31 SLP213 P0001 T10061022
Pressure 30.16 in
Visibility 6.0 miles
Clouds Overcast 3600 ft
Windchill 35 °F
Dew Point 32 °F
Humidity 88%
Rainfall 0.00 in
Snow Depth Not available.
7:24 AM 6:12 PM
Waxing Crescent, 21% visible
METAR KTYS 121553Z 30006KT 6SM BR OVC036 M01/M02 A3014 RMK AO2 SNE06B12E31 SLP213 P0001 T10061022

10-Day Weather Forecast

Almanac

Astronomy

Feb. 12, 2016 Rise Set
Actual Time
Civil Twilight
Nautical Twilight
Astronomical Twilight
Moon
Length of Visible Light
Length of Day
Tomorrow will be .
, % of the Moon is Illuminated

Today's Extremes

State Highs State Lows

Community

WunderPhotos

Upload Photos

1,892,345 photos uploaded!

WunderBlog® & News

Nearby

Air Quality

  Air Quality AQ Index Pollutant
Not available.

Snow Depth

Station Depth Elevation

Earthquake Activity

City Distance Mag. Time & Date
Minimum magnitude displayed is 2.5.

Coastal Water Temperatures

Place Temperature

Stations

Nearby Weather Stations

Station Location Temp. Windchill Dew Point Humidity Wind Precip. Elev Updated Type
                   

Watches & Warnings

Winter Weather Advisory
Issued: 8:10 AM EST Feb. 12, 2016 – National Weather Service

... Winter Weather Advisory remains in effect until 4 am EST
Saturday...

* event... snow accumulations of 1 to 4 inches are expected. The
greatest accumulations will be in the higher elevations.

* Timing... snow will continue through this morning. Scattered to
numerous snow showers will linger into tonight.

* Impacts... the snow may lead to hazardous Road conditions
especially on untreated roadways.

Precautionary/preparedness actions...

Travel will likely become hazardous once the wintry precipitation
begins. Motorists need to be especially careful on bridges and
overpasses where slippery spots often develop first.